sensor_id;sensor_type;location;lat;lon;timestamp;pressure;altitude;pressure_sealevel;temperature;humidity
63306;BME280;50735;52.060;1.248;2022-07-03T00:01:50;101480.14;;;16.02;46.14
63306;BME280;50735;52.060;1.248;2022-07-03T00:04:17;101483.01;;;16.10;46.02
63306;BME280;50735;52.060;1.248;2022-07-03T00:06:43;101484.06;;;16.02;46.22
63306;BME280;50735;52.060;1.248;2022-07-03T00:09:10;101483.22;;;15.93;46.46
63306;BME280;50735;52.060;1.248;2022-07-03T00:11:39;101480.59;;;15.95;46.23
63306;BME280;50735;52.060;1.248;2022-07-03T00:14:07;101479.53;;;15.99;46.12
63306;BME280;50735;52.060;1.248;2022-07-03T00:16:34;101479.87;;;15.83;46.93
63306;BME280;50735;52.060;1.248;2022-07-03T00:19:01;101481.10;;;15.70;46.45
63306;BME280;50735;52.060;1.248;2022-07-03T00:21:31;101483.17;;;15.85;46.31
63306;BME280;50735;52.060;1.248;2022-07-03T00:24:04;101488.16;;;16.10;46.25
63306;BME280;50735;52.060;1.248;2022-07-03T00:26:37;101487.41;;;16.14;46.18
63306;BME280;50735;52.060;1.248;2022-07-03T00:29:05;101480.71;;;16.29;46.19
63306;BME280;50735;52.060;1.248;2022-07-03T00:31:33;101483.58;;;16.39;46.32
63306;BME280;50735;52.060;1.248;2022-07-03T00:34:01;101486.96;;;16.06;46.28
63306;BME280;50735;52.060;1.248;2022-07-03T00:36:33;101484.59;;;16.24;46.58
63306;BME280;50735;52.060;1.248;2022-07-03T00:39:01;101483.33;;;15.83;46.43
63306;BME280;50735;52.060;1.248;2022-07-03T00:41:30;101480.71;;;16.07;46.07
63306;BME280;50735;52.060;1.248;2022-07-03T00:43:59;101476.93;;;16.08;46.12
63306;BME280;50735;52.060;1.248;2022-07-03T00:46:27;101476.43;;;16.14;46.38
63306;BME280;50735;52.060;1.248;2022-07-03T00:48:56;101472.60;;;16.06;46.33
63306;BME280;50735;52.060;1.248;2022-07-03T00:51:25;101473.16;;;16.04;46.53
63306;BME280;50735;52.060;1.248;2022-07-03T00:53:54;101475.33;;;16.01;46.33
63306;BME280;50735;52.060;1.248;2022-07-03T00:56:24;101471.96;;;15.81;46.66
63306;BME280;50735;52.060;1.248;2022-07-03T00:58:54;101470.30;;;15.88;47.26
63306;BME280;50735;52.060;1.248;2022-07-03T01:01:22;101471.07;;;15.68;47.50
63306;BME280;50735;52.060;1.248;2022-07-03T01:04:01;101470.16;;;15.46;48.00
63306;BME280;50735;52.060;1.248;2022-07-03T01:06:33;101474.32;;;15.56;47.55
63306;BME280;50735;52.060;1.248;2022-07-03T01:09:03;101480.35;;;15.23;48.31
63306;BME280;50735;52.060;1.248;2022-07-03T01:11:36;101479.55;;;15.21;48.09
63306;BME280;50735;52.060;1.248;2022-07-03T01:14:15;101481.51;;;15.18;47.79
63306;BME280;50735;52.060;1.248;2022-07-03T01:16:54;101482.35;;;15.48;47.42
63306;BME280;50735;52.060;1.248;2022-07-03T01:19:36;101484.36;;;15.32;48.08
63306;BME280;50735;52.060;1.248;2022-07-03T01:22:19;101483.16;;;15.19;47.72
63306;BME280;50735;52.060;1.248;2022-07-03T01:25:00;101484.91;;;15.37;47.86
63306;BME280;50735;52.060;1.248;2022-07-03T01:27:34;101482.64;;;15.13;48.35
63306;BME280;50735;52.060;1.248;2022-07-03T01:30:05;101478.17;;;14.91;49.06
63306;BME280;50735;52.060;1.248;2022-07-03T01:32:37;101474.17;;;15.03;48.97
63306;BME280;50735;52.060;1.248;2022-07-03T01:35:07;101470.30;;;14.65;49.48
63306;BME280;50735;52.060;1.248;2022-07-03T01:37:35;101470.30;;;14.65;49.49
63306;BME280;50735;52.060;1.248;2022-07-03T01:40:03;101473.60;;;14.31;50.89
63306;BME280;50735;52.060;1.248;2022-07-03T01:42:33;101473.17;;;14.15;51.16
63306;BME280;50735;52.060;1.248;2022-07-03T01:45:02;101467.75;;;14.14;50.69
63306;BME280;50735;52.060;1.248;2022-07-03T01:47:30;101470.88;;;14.48;50.93
63306;BME280;50735;52.060;1.248;2022-07-03T01:49:58;101473.28;;;14.36;50.78
63306;BME280;50735;52.060;1.248;2022-07-03T01:52:31;101472.49;;;14.40;51.38
63306;BME280;50735;52.060;1.248;2022-07-03T01:55:00;101470.81;;;13.92;51.88
63306;BME280;50735;52.060;1.248;2022-07-03T01:57:35;101475.02;;;13.92;51.61
63306;BME280;50735;52.060;1.248;2022-07-03T02:00:05;101473.62;;;14.28;51.73
63306;BME280;50735;52.060;1.248;2022-07-03T02:02:33;101475.01;;;14.38;51.43
63306;BME280;50735;52.060;1.248;2022-07-03T02:05:06;101474.86;;;14.14;51.92
63306;BME280;50735;52.060;1.248;2022-07-03T02:07:38;101476.47;;;14.41;51.80
63306;BME280;50735;52.060;1.248;2022-07-03T02:10:08;101473.02;;;14.13;51.47
63306;BME280;50735;52.060;1.248;2022-07-03T02:12:39;101469.13;;;14.47;51.08
63306;BME280;50735;52.060;1.248;2022-07-03T02:15:09;101463.70;;;14.55;50.87
63306;BME280;50735;52.060;1.248;2022-07-03T02:17:37;101461.92;;;14.43;51.40
63306;BME280;50735;52.060;1.248;2022-07-03T02:20:07;101461.47;;;14.60;51.59
63306;BME280;50735;52.060;1.248;2022-07-03T02:22:37;101457.40;;;14.21;52.28
63306;BME280;50735;52.060;1.248;2022-07-03T02:25:06;101452.21;;;14.54;51.93
63306;BME280;50735;52.060;1.248;2022-07-03T02:27:42;101447.89;;;14.25;52.53
63306;BME280;50735;52.060;1.248;2022-07-03T02:30:10;101446.32;;;14.09;52.47
63306;BME280;50735;52.060;1.248;2022-07-03T02:32:42;101447.22;;;13.83;53.30
63306;BME280;50735;52.060;1.248;2022-07-03T02:35:11;101446.57;;;13.97;53.04
63306;BME280;50735;52.060;1.248;2022-07-03T02:37:45;101446.28;;;14.33;52.49
63306;BME280;50735;52.060;1.248;2022-07-03T02:40:20;101443.28;;;14.26;52.43
63306;BME280;50735;52.060;1.248;2022-07-03T02:43:02;101444.99;;;14.27;52.41
63306;BME280;50735;52.060;1.248;2022-07-03T02:45:38;101442.21;;;14.46;52.38
63306;BME280;50735;52.060;1.248;2022-07-03T02:48:12;101443.61;;;14.53;52.04
63306;BME280;50735;52.060;1.248;2022-07-03T02:50:46;101447.73;;;14.45;52.48
63306;BME280;50735;52.060;1.248;2022-07-03T02:53:21;101447.16;;;14.49;52.46
63306;BME280;50735;52.060;1.248;2022-07-03T02:55:58;101446.72;;;14.41;52.67
63306;BME280;50735;52.060;1.248;2022-07-03T02:58:44;101446.75;;;14.18;52.81
63306;BME280;50735;52.060;1.248;2022-07-03T03:01:20;101446.85;;;13.98;53.02
63306;BME280;50735;52.060;1.248;2022-07-03T03:03:58;101449.25;;;14.10;52.95
63306;BME280;50735;52.060;1.248;2022-07-03T03:06:29;101447.94;;;13.87;53.30
63306;BME280;50735;52.060;1.248;2022-07-03T03:09:01;101451.41;;;14.22;52.87
63306;BME280;50735;52.060;1.248;2022-07-03T03:11:36;101453.28;;;13.85;53.61
63306;BME280;50735;52.060;1.248;2022-07-03T03:14:07;101453.63;;;13.83;53.45
63306;BME280;50735;52.060;1.248;2022-07-03T03:16:36;101454.54;;;13.71;53.70
63306;BME280;50735;52.060;1.248;2022-07-03T03:19:05;101455.01;;;14.03;53.44
63306;BME280;50735;52.060;1.248;2022-07-03T03:21:37;101456.69;;;13.97;53.70
63306;BME280;50735;52.060;1.248;2022-07-03T03:24:09;101460.42;;;13.85;53.90
63306;BME280;50735;52.060;1.248;2022-07-03T03:26:38;101466.57;;;13.87;54.10
63306;BME280;50735;52.060;1.248;2022-07-03T03:29:05;101467.75;;;13.88;54.14
63306;BME280;50735;52.060;1.248;2022-07-03T03:31:32;101465.97;;;14.29;53.61
63306;BME280;50735;52.060;1.248;2022-07-03T03:33:59;101464.26;;;14.00;53.77
63306;BME280;50735;52.060;1.248;2022-07-03T03:36:26;101464.85;;;14.22;53.03
63306;BME280;50735;52.060;1.248;2022-07-03T03:38:55;101466.63;;;14.16;53.40
63306;BME280;50735;52.060;1.248;2022-07-03T03:41:22;101463.43;;;14.04;53.78
63306;BME280;50735;52.060;1.248;2022-07-03T03:43:50;101467.41;;;13.93;54.24
63306;BME280;50735;52.060;1.248;2022-07-03T03:46:17;101474.53;;;13.58;55.14
63306;BME280;50735;52.060;1.248;2022-07-03T03:48:44;101478.54;;;13.80;54.68
63306;BME280;50735;52.060;1.248;2022-07-03T03:51:12;101477.74;;;13.59;55.36
63306;BME280;50735;52.060;1.248;2022-07-03T03:53:39;101479.17;;;13.48;55.52
63306;BME280;50735;52.060;1.248;2022-07-03T03:56:08;101483.80;;;14.00;54.64
63306;BME280;50735;52.060;1.248;2022-07-03T03:58:37;101486.04;;;13.85;54.91
63306;BME280;50735;52.060;1.248;2022-07-03T04:01:06;101486.64;;;13.92;54.74
63306;BME280;50735;52.060;1.248;2022-07-03T04:03:33;101494.48;;;13.80;55.06
63306;BME280;50735;52.060;1.248;2022-07-03T04:06:02;101495.51;;;13.49;55.40
63306;BME280;50735;52.060;1.248;2022-07-03T04:08:30;101491.11;;;13.75;54.89
63306;BME280;50735;52.060;1.248;2022-07-03T04:10:58;101493.02;;;13.85;55.01
63306;BME280;50735;52.060;1.248;2022-07-03T04:13:25;101491.11;;;14.02;54.39
63306;BME280;50735;52.060;1.248;2022-07-03T04:15:54;101488.28;;;14.09;54.43
63306;BME280;50735;52.060;1.248;2022-07-03T04:18:21;101496.20;;;14.03;54.52
63306;BME280;50735;52.060;1.248;2022-07-03T04:20:48;101492.55;;;13.97;54.74
63306;BME280;50735;52.060;1.248;2022-07-03T04:23:16;101486.09;;;13.91;54.22
63306;BME280;50735;52.060;1.248;2022-07-03T04:25:43;101493.49;;;14.04;54.28
63306;BME280;50735;52.060;1.248;2022-07-03T04:28:10;101497.26;;;13.97;54.64
63306;BME280;50735;52.060;1.248;2022-07-03T04:30:37;101493.83;;;14.03;54.21
63306;BME280;50735;52.060;1.248;2022-07-03T04:33:04;101495.34;;;13.90;54.73
63306;BME280;50735;52.060;1.248;2022-07-03T04:35:31;101496.16;;;13.43;55.07
63306;BME280;50735;52.060;1.248;2022-07-03T04:37:58;101493.74;;;13.63;55.05
63306;BME280;50735;52.060;1.248;2022-07-03T04:40:24;101493.36;;;13.42;55.57
63306;BME280;50735;52.060;1.248;2022-07-03T04:42:52;101490.41;;;13.49;55.19
63306;BME280;50735;52.060;1.248;2022-07-03T04:45:19;101496.16;;;13.53;54.97
63306;BME280;50735;52.060;1.248;2022-07-03T04:47:46;101497.15;;;13.33;55.48
63306;BME280;50735;52.060;1.248;2022-07-03T04:50:12;101500.71;;;13.51;55.24
63306;BME280;50735;52.060;1.248;2022-07-03T04:52:39;101499.71;;;13.65;54.79
63306;BME280;50735;52.060;1.248;2022-07-03T04:55:06;101499.93;;;13.73;54.40
63306;BME280;50735;52.060;1.248;2022-07-03T04:57:33;101499.20;;;13.68;54.44
63306;BME280;50735;52.060;1.248;2022-07-03T05:00:00;101498.20;;;13.65;54.44
63306;BME280;50735;52.060;1.248;2022-07-03T05:02:28;101497.23;;;13.81;54.12
63306;BME280;50735;52.060;1.248;2022-07-03T05:04:54;101498.03;;;13.86;53.78
63306;BME280;50735;52.060;1.248;2022-07-03T05:07:21;101499.77;;;13.64;54.24
63306;BME280;50735;52.060;1.248;2022-07-03T05:09:47;101503.26;;;13.70;54.09
63306;BME280;50735;52.060;1.248;2022-07-03T05:12:14;101509.35;;;13.69;53.95
63306;BME280;50735;52.060;1.248;2022-07-03T05:14:40;101515.27;;;13.56;54.31
63306;BME280;50735;52.060;1.248;2022-07-03T05:17:07;101520.68;;;13.57;54.18
63306;BME280;50735;52.060;1.248;2022-07-03T05:19:33;101524.15;;;13.63;54.11
63306;BME280;50735;52.060;1.248;2022-07-03T05:22:00;101528.84;;;13.68;54.04
63306;BME280;50735;52.060;1.248;2022-07-03T05:24:26;101523.31;;;13.74;53.81
63306;BME280;50735;52.060;1.248;2022-07-03T05:26:53;101524.03;;;13.17;54.49
63306;BME280;50735;52.060;1.248;2022-07-03T05:29:20;101520.82;;;13.50;54.03
63306;BME280;50735;52.060;1.248;2022-07-03T05:31:46;101526.92;;;13.57;53.77
63306;BME280;50735;52.060;1.248;2022-07-03T05:34:13;101528.88;;;13.65;53.65
63306;BME280;50735;52.060;1.248;2022-07-03T05:36:40;101527.27;;;13.83;53.32
63306;BME280;50735;52.060;1.248;2022-07-03T05:39:07;101528.38;;;13.72;53.26
63306;BME280;50735;52.060;1.248;2022-07-03T05:41:33;101528.35;;;13.73;53.12
63306;BME280;50735;52.060;1.248;2022-07-03T05:44:00;101525.28;;;14.17;52.54
63306;BME280;50735;52.060;1.248;2022-07-03T05:46:26;101524.62;;;14.32;52.12
63306;BME280;50735;52.060;1.248;2022-07-03T05:48:53;101524.26;;;14.62;51.64
63306;BME280;50735;52.060;1.248;2022-07-03T05:51:19;101524.58;;;14.55;51.27
63306;BME280;50735;52.060;1.248;2022-07-03T05:53:46;101530.37;;;14.29;51.40
63306;BME280;50735;52.060;1.248;2022-07-03T05:56:12;101528.86;;;14.43;51.44
63306;BME280;50735;52.060;1.248;2022-07-03T05:58:39;101528.76;;;14.44;51.08
63306;BME280;50735;52.060;1.248;2022-07-03T06:01:05;101527.91;;;14.57;50.93
63306;BME280;50735;52.060;1.248;2022-07-03T06:03:32;101531.72;;;14.19;51.12
63306;BME280;50735;52.060;1.248;2022-07-03T06:05:59;101524.44;;;14.42;50.66
63306;BME280;50735;52.060;1.248;2022-07-03T06:08:26;101526.19;;;14.65;50.39
63306;BME280;50735;52.060;1.248;2022-07-03T06:10:53;101530.75;;;14.82;49.61
63306;BME280;50735;52.060;1.248;2022-07-03T06:13:20;101531.59;;;14.68;49.51
63306;BME280;50735;52.060;1.248;2022-07-03T06:15:47;101530.79;;;14.57;49.61
63306;BME280;50735;52.060;1.248;2022-07-03T06:18:14;101533.92;;;14.70;49.12
63306;BME280;50735;52.060;1.248;2022-07-03T06:20:40;101533.20;;;14.81;48.94
63306;BME280;50735;52.060;1.248;2022-07-03T06:23:07;101536.45;;;15.09;48.56
63306;BME280;50735;52.060;1.248;2022-07-03T06:25:34;101538.96;;;14.98;48.34
63306;BME280;50735;52.060;1.248;2022-07-03T06:28:01;101539.85;;;14.52;49.03
63306;BME280;50735;52.060;1.248;2022-07-03T06:30:27;101538.86;;;14.70;48.75
63306;BME280;50735;52.060;1.248;2022-07-03T06:32:54;101540.70;;;15.12;48.40
63306;BME280;50735;52.060;1.248;2022-07-03T06:35:20;101542.99;;;14.93;47.87
63306;BME280;50735;52.060;1.248;2022-07-03T06:37:47;101539.84;;;15.12;47.81
63306;BME280;50735;52.060;1.248;2022-07-03T06:40:13;101544.46;;;14.85;48.28
63306;BME280;50735;52.060;1.248;2022-07-03T06:42:41;101546.81;;;15.42;47.91
63306;BME280;50735;52.060;1.248;2022-07-03T06:45:08;101550.37;;;14.78;47.81
63306;BME280;50735;52.060;1.248;2022-07-03T06:47:37;101552.15;;;14.60;48.16
63306;BME280;50735;52.060;1.248;2022-07-03T06:50:05;101554.04;;;15.13;47.41
63306;BME280;50735;52.060;1.248;2022-07-03T06:52:31;101554.37;;;15.47;46.82
63306;BME280;50735;52.060;1.248;2022-07-03T06:54:58;101558.96;;;15.64;46.29
63306;BME280;50735;52.060;1.248;2022-07-03T06:57:24;101563.50;;;15.74;46.07
63306;BME280;50735;52.060;1.248;2022-07-03T06:59:51;101564.65;;;15.75;46.02
63306;BME280;50735;52.060;1.248;2022-07-03T07:02:17;101562.63;;;15.52;46.10
63306;BME280;50735;52.060;1.248;2022-07-03T07:04:45;101558.90;;;15.78;45.77
63306;BME280;50735;52.060;1.248;2022-07-03T07:07:12;101556.42;;;15.51;46.01
63306;BME280;50735;52.060;1.248;2022-07-03T07:09:39;101558.55;;;15.62;46.01
63306;BME280;50735;52.060;1.248;2022-07-03T07:12:06;101563.76;;;15.64;46.29
63306;BME280;50735;52.060;1.248;2022-07-03T07:14:33;101562.17;;;15.44;46.28
63306;BME280;50735;52.060;1.248;2022-07-03T07:17:00;101564.35;;;15.47;46.35
63306;BME280;50735;52.060;1.248;2022-07-03T07:19:26;101568.51;;;15.35;46.48
63306;BME280;50735;52.060;1.248;2022-07-03T07:21:54;101564.93;;;15.19;46.06
63306;BME280;50735;52.060;1.248;2022-07-03T07:24:21;101567.97;;;15.58;45.53
63306;BME280;50735;52.060;1.248;2022-07-03T07:26:48;101561.96;;;15.91;45.46
63306;BME280;50735;52.060;1.248;2022-07-03T07:29:14;101566.47;;;16.47;44.59
63306;BME280;50735;52.060;1.248;2022-07-03T07:31:41;101564.55;;;16.93;43.61
63306;BME280;50735;52.060;1.248;2022-07-03T07:34:08;101561.03;;;17.57;42.39
63306;BME280;50735;52.060;1.248;2022-07-03T07:36:35;101556.58;;;17.73;40.04
63306;BME280;50735;52.060;1.248;2022-07-03T07:39:02;101556.67;;;17.94;39.57
63306;BME280;50735;52.060;1.248;2022-07-03T07:41:29;101555.66;;;18.01;39.63
63306;BME280;50735;52.060;1.248;2022-07-03T07:43:56;101563.26;;;17.55;39.57
63306;BME280;50735;52.060;1.248;2022-07-03T07:46:23;101561.77;;;17.91;39.10
63306;BME280;50735;52.060;1.248;2022-07-03T07:48:50;101567.37;;;18.72;37.90
63306;BME280;50735;52.060;1.248;2022-07-03T07:51:17;101568.19;;;18.82;36.75
63306;BME280;50735;52.060;1.248;2022-07-03T07:53:45;101572.04;;;18.06;37.75
63306;BME280;50735;52.060;1.248;2022-07-03T07:56:12;101574.19;;;17.74;37.74
63306;BME280;50735;52.060;1.248;2022-07-03T07:58:39;101580.38;;;18.47;37.17
63306;BME280;50735;52.060;1.248;2022-07-03T08:01:07;101581.77;;;18.66;35.85
63306;BME280;50735;52.060;1.248;2022-07-03T08:03:34;101583.84;;;18.63;35.08
63306;BME280;50735;52.060;1.248;2022-07-03T08:06:01;101585.83;;;18.34;35.81
63306;BME280;50735;52.060;1.248;2022-07-03T08:08:28;101582.15;;;18.69;36.25
63306;BME280;50735;52.060;1.248;2022-07-03T08:10:55;101581.27;;;18.93;36.12
63306;BME280;50735;52.060;1.248;2022-07-03T08:13:22;101575.22;;;19.33;36.19
63306;BME280;50735;52.060;1.248;2022-07-03T08:15:49;101580.41;;;19.84;36.20
63306;BME280;50735;52.060;1.248;2022-07-03T08:18:16;101586.75;;;19.61;36.37
63306;BME280;50735;52.060;1.248;2022-07-03T08:20:43;101583.94;;;19.68;35.25
63306;BME280;50735;52.060;1.248;2022-07-03T08:23:11;101584.28;;;19.61;35.33
63306;BME280;50735;52.060;1.248;2022-07-03T08:25:38;101586.33;;;19.68;35.19
63306;BME280;50735;52.060;1.248;2022-07-03T08:28:05;101584.59;;;19.56;35.67
63306;BME280;50735;52.060;1.248;2022-07-03T08:30:32;101588.37;;;19.39;35.99
63306;BME280;50735;52.060;1.248;2022-07-03T08:33:00;101590.61;;;19.40;35.89
63306;BME280;50735;52.060;1.248;2022-07-03T08:35:28;101591.35;;;18.93;35.68
63306;BME280;50735;52.060;1.248;2022-07-03T08:37:55;101590.81;;;19.00;37.07
63306;BME280;50735;52.060;1.248;2022-07-03T08:40:22;101587.06;;;19.17;36.78
63306;BME280;50735;52.060;1.248;2022-07-03T08:42:52;101589.82;;;19.08;36.75
63306;BME280;50735;52.060;1.248;2022-07-03T08:45:21;101586.47;;;18.71;35.26
63306;BME280;50735;52.060;1.248;2022-07-03T08:47:50;101585.34;;;18.48;35.03
63306;BME280;50735;52.060;1.248;2022-07-03T08:50:19;101583.70;;;18.69;35.72
63306;BME280;50735;52.060;1.248;2022-07-03T08:52:47;101584.51;;;18.17;35.70
63306;BME280;50735;52.060;1.248;2022-07-03T08:55:15;101581.08;;;17.80;35.45
63306;BME280;50735;52.060;1.248;2022-07-03T08:57:44;101582.43;;;18.66;35.33
63306;BME280;50735;52.060;1.248;2022-07-03T09:00:14;101579.33;;;19.10;34.16
63306;BME280;50735;52.060;1.248;2022-07-03T09:02:44;101580.62;;;19.12;34.23
63306;BME280;50735;52.060;1.248;2022-07-03T09:05:12;101574.64;;;19.27;34.44
63306;BME280;50735;52.060;1.248;2022-07-03T09:07:41;101570.59;;;19.65;34.16
63306;BME280;50735;52.060;1.248;2022-07-03T09:10:10;101574.78;;;19.38;34.06
63306;BME280;50735;52.060;1.248;2022-07-03T09:12:38;101572.21;;;19.45;33.95
63306;BME280;50735;52.060;1.248;2022-07-03T09:15:07;101574.53;;;19.82;33.64
63306;BME280;50735;52.060;1.248;2022-07-03T09:17:36;101570.72;;;19.75;32.96
63306;BME280;50735;52.060;1.248;2022-07-03T09:20:05;101573.77;;;19.63;32.22
63306;BME280;50735;52.060;1.248;2022-07-03T09:22:33;101568.44;;;19.92;32.10
63306;BME280;50735;52.060;1.248;2022-07-03T09:25:05;101568.36;;;20.84;31.08
63306;BME280;50735;52.060;1.248;2022-07-03T09:27:33;101571.28;;;20.32;31.53
63306;BME280;50735;52.060;1.248;2022-07-03T09:30:02;101573.01;;;20.47;30.23
63306;BME280;50735;52.060;1.248;2022-07-03T09:32:32;101570.23;;;20.31;31.38
63306;BME280;50735;52.060;1.248;2022-07-03T09:35:17;101573.37;;;20.75;30.80
63306;BME280;50735;52.060;1.248;2022-07-03T09:37:54;101571.27;;;20.33;30.99
63306;BME280;50735;52.060;1.248;2022-07-03T09:40:22;101578.93;;;20.38;31.17
63306;BME280;50735;52.060;1.248;2022-07-03T09:42:59;101575.03;;;21.04;30.47
63306;BME280;50735;52.060;1.248;2022-07-03T09:45:27;101579.62;;;20.38;30.70
63306;BME280;50735;52.060;1.248;2022-07-03T09:48:21;101579.05;;;20.45;30.39
63306;BME280;50735;52.060;1.248;2022-07-03T09:50:49;101578.22;;;20.62;30.79
63306;BME280;50735;52.060;1.248;2022-07-03T09:53:16;101585.17;;;20.56;30.31
63306;BME280;50735;52.060;1.248;2022-07-03T09:55:55;101583.33;;;21.64;29.58
63306;BME280;50735;52.060;1.248;2022-07-03T09:58:23;101584.03;;;21.80;28.51
63306;BME280;50735;52.060;1.248;2022-07-03T10:00:50;101593.09;;;20.98;29.32
63306;BME280;50735;52.060;1.248;2022-07-03T10:03:20;101592.99;;;20.91;29.65
63306;BME280;50735;52.060;1.248;2022-07-03T10:05:47;101590.81;;;20.10;30.38
63306;BME280;50735;52.060;1.248;2022-07-03T10:08:15;101592.24;;;21.63;29.37
63306;BME280;50735;52.060;1.248;2022-07-03T10:10:45;101588.87;;;21.67;28.67
63306;BME280;50735;52.060;1.248;2022-07-03T10:13:13;101591.52;;;20.54;30.36
63306;BME280;50735;52.060;1.248;2022-07-03T10:15:42;101586.71;;;20.38;30.84
63306;BME280;50735;52.060;1.248;2022-07-03T10:18:11;101588.27;;;18.83;32.60
63306;BME280;50735;52.060;1.248;2022-07-03T10:20:39;101591.93;;;19.36;32.04
63306;BME280;50735;52.060;1.248;2022-07-03T10:23:09;101596.02;;;19.26;31.41
63306;BME280;50735;52.060;1.248;2022-07-03T10:25:37;101597.38;;;18.90;32.04
63306;BME280;50735;52.060;1.248;2022-07-03T10:28:06;101593.86;;;18.85;32.38
63306;BME280;50735;52.060;1.248;2022-07-03T10:30:34;101587.43;;;18.99;32.24
63306;BME280;50735;52.060;1.248;2022-07-03T10:33:01;101591.19;;;19.83;32.13
63306;BME280;50735;52.060;1.248;2022-07-03T10:35:32;101590.40;;;20.28;31.90
63306;BME280;50735;52.060;1.248;2022-07-03T10:38:20;101590.44;;;20.17;31.77
63306;BME280;50735;52.060;1.248;2022-07-03T10:40:54;101591.11;;;21.07;30.41
63306;BME280;50735;52.060;1.248;2022-07-03T10:43:27;101591.96;;;21.12;30.07
63306;BME280;50735;52.060;1.248;2022-07-03T10:46:08;101587.90;;;22.04;29.29
63306;BME280;50735;52.060;1.248;2022-07-03T10:48:51;101585.81;;;22.03;28.29
63306;BME280;50735;52.060;1.248;2022-07-03T10:51:18;101585.61;;;21.64;29.02
63306;BME280;50735;52.060;1.248;2022-07-03T10:53:45;101585.94;;;21.52;29.34
63306;BME280;50735;52.060;1.248;2022-07-03T10:56:12;101589.78;;;20.71;30.09
63306;BME280;50735;52.060;1.248;2022-07-03T10:58:55;101587.71;;;19.38;32.05
63306;BME280;50735;52.060;1.248;2022-07-03T11:01:26;101595.10;;;18.63;33.69
63306;BME280;50735;52.060;1.248;2022-07-03T11:03:54;101590.32;;;18.07;34.80
63306;BME280;50735;52.060;1.248;2022-07-03T11:06:37;101592.82;;;18.44;34.26
63306;BME280;50735;52.060;1.248;2022-07-03T11:09:34;101591.54;;;18.47;34.89
63306;BME280;50735;52.060;1.248;2022-07-03T11:12:00;101597.29;;;18.47;34.57
63306;BME280;50735;52.060;1.248;2022-07-03T11:14:28;101594.64;;;18.43;34.46
63306;BME280;50735;52.060;1.248;2022-07-03T11:17:28;101593.70;;;18.53;34.15
63306;BME280;50735;52.060;1.248;2022-07-03T11:19:56;101592.29;;;19.08;33.97
63306;BME280;50735;52.060;1.248;2022-07-03T11:22:24;101586.57;;;19.96;32.68
63306;BME280;50735;52.060;1.248;2022-07-03T11:24:54;101587.30;;;20.46;31.65
63306;BME280;50735;52.060;1.248;2022-07-03T11:27:24;101581.67;;;21.17;31.14
63306;BME280;50735;52.060;1.248;2022-07-03T11:29:57;101583.88;;;20.55;31.51
63306;BME280;50735;52.060;1.248;2022-07-03T11:32:57;101584.08;;;20.71;31.29
63306;BME280;50735;52.060;1.248;2022-07-03T11:35:56;101584.70;;;20.63;32.09
63306;BME280;50735;52.060;1.248;2022-07-03T11:38:25;101585.97;;;21.52;31.72
63306;BME280;50735;52.060;1.248;2022-07-03T11:40:54;101587.81;;;21.98;30.81
63306;BME280;50735;52.060;1.248;2022-07-03T11:43:22;101592.50;;;21.48;30.59
63306;BME280;50735;52.060;1.248;2022-07-03T11:45:49;101591.72;;;21.97;29.29
63306;BME280;50735;52.060;1.248;2022-07-03T11:48:18;101592.90;;;21.91;28.63
63306;BME280;50735;52.060;1.248;2022-07-03T11:50:47;101592.71;;;21.85;28.18
63306;BME280;50735;52.060;1.248;2022-07-03T11:53:23;101596.04;;;21.86;28.37
63306;BME280;50735;52.060;1.248;2022-07-03T11:55:54;101589.66;;;21.94;28.67
63306;BME280;50735;52.060;1.248;2022-07-03T11:58:22;101586.88;;;22.44;27.61
63306;BME280;50735;52.060;1.248;2022-07-03T12:00:49;101581.82;;;22.97;27.41
63306;BME280;50735;52.060;1.248;2022-07-03T12:03:23;101577.67;;;22.21;28.31
63306;BME280;50735;52.060;1.248;2022-07-03T12:05:54;101586.17;;;21.58;29.12
63306;BME280;50735;52.060;1.248;2022-07-03T12:08:23;101585.77;;;21.62;29.26
63306;BME280;50735;52.060;1.248;2022-07-03T12:10:56;101589.49;;;21.53;29.29
63306;BME280;50735;52.060;1.248;2022-07-03T12:13:24;101595.28;;;20.98;29.41
63306;BME280;50735;52.060;1.248;2022-07-03T12:15:52;101593.82;;;21.05;29.60
63306;BME280;50735;52.060;1.248;2022-07-03T12:18:19;101595.23;;;21.35;29.28
63306;BME280;50735;52.060;1.248;2022-07-03T12:20:46;101589.49;;;21.52;28.67
63306;BME280;50735;52.060;1.248;2022-07-03T12:23:13;101587.47;;;21.32;28.66
63306;BME280;50735;52.060;1.248;2022-07-03T12:25:41;101586.88;;;21.68;28.10
63306;BME280;50735;52.060;1.248;2022-07-03T12:28:09;101580.75;;;22.45;27.59
63306;BME280;50735;52.060;1.248;2022-07-03T12:30:37;101581.46;;;22.40;27.23
63306;BME280;50735;52.060;1.248;2022-07-03T12:33:06;101586.55;;;22.49;27.86
63306;BME280;50735;52.060;1.248;2022-07-03T12:35:32;101582.76;;;21.76;28.55
63306;BME280;50735;52.060;1.248;2022-07-03T12:38:00;101590.38;;;21.41;29.04
63306;BME280;50735;52.060;1.248;2022-07-03T12:40:27;101595.10;;;20.94;29.44
63306;BME280;50735;52.060;1.248;2022-07-03T12:42:55;101589.69;;;20.77;30.10
63306;BME280;50735;52.060;1.248;2022-07-03T12:45:23;101586.97;;;20.80;30.03
63306;BME280;50735;52.060;1.248;2022-07-03T12:47:58;101589.99;;;20.49;29.61
63306;BME280;50735;52.060;1.248;2022-07-03T12:50:25;101584.24;;;21.38;28.81
63306;BME280;50735;52.060;1.248;2022-07-03T12:52:54;101580.68;;;22.07;28.05
63306;BME280;50735;52.060;1.248;2022-07-03T12:55:23;101580.91;;;22.92;27.06
63306;BME280;50735;52.060;1.248;2022-07-03T12:58:10;101586.60;;;22.87;26.11
63306;BME280;50735;52.060;1.248;2022-07-03T13:00:44;101587.12;;;22.28;27.13
63306;BME280;50735;52.060;1.248;2022-07-03T13:03:26;101583.47;;;22.17;27.72